Time;durP1;ratioP1;P1;durP2;ratioP2;P2;SDS_P1;SDS_P2;PMS_P1;PMS_P2;Temp;Humidity;BMP_temperature;BMP_pressure;BME280_temperature;BME280_humidity;BME280_pressure;Samples;Min_cycle;Max_cycle;Signal;HPM_P1;HPM_P2
2021/12/11 00:01:42;;;;;;;5.88;2.03;;;;;;;3.60;100.00;100094.81;4993007;28;20050;-87
2021/12/11 00:04:18;;;;;;;4.63;1.50;;;;;;;3.47;100.00;100079.56;4992578;28;20052;-87
2021/12/11 00:06:48;;;;;;;5.07;1.98;;;;;;;3.49;100.00;100101.06;5005245;28;20046;-87
2021/12/11 00:09:19;;;;;;;5.03;1.70;;;;;;;3.47;100.00;100102.84;4992122;28;20046;-87
2021/12/11 00:11:58;;;;;;;7.50;1.83;;;;;;;3.52;100.00;100108.78;4987235;28;20054;-87
2021/12/11 00:14:28;;;;;;;4.53;1.52;;;;;;;3.29;100.00;100102.28;5005177;28;20057;-87
2021/12/11 00:16:56;;;;;;;3.60;1.45;;;;;;;3.21;100.00;100117.97;4986775;28;20488;-88
2021/12/11 00:19:29;;;;;;;4.53;1.60;;;;;;;3.11;100.00;100105.22;4991257;28;20082;-87
2021/12/11 00:22:05;;;;;;;4.95;1.50;;;;;;;3.03;100.00;100113.13;4985695;28;20062;-87
2021/12/11 00:24:33;;;;;;;8.50;2.28;;;;;;;3.07;100.00;100112.16;4983117;28;20054;-88
2021/12/11 00:27:04;;;;;;;5.65;2.28;;;;;;;2.90;100.00;100098.66;4986251;28;20060;-87
2021/12/11 00:29:34;;;;;;;7.47;1.67;;;;;;;2.90;100.00;100102.09;4985742;28;20047;-88
2021/12/11 00:32:20;;;;;;;4.78;1.55;;;;;;;2.89;100.00;100139.19;4986880;28;20093;-88
2021/12/11 00:34:47;;;;;;;6.25;1.65;;;;;;;2.49;100.00;100110.50;4987262;28;20084;-88
2021/12/11 00:37:18;;;;;;;6.63;2.25;;;;;;;2.47;100.00;100124.28;4987188;28;20053;-88
2021/12/11 00:39:52;;;;;;;5.50;1.60;;;;;;;2.54;100.00;100125.06;4981898;28;20060;-87
2021/12/11 00:42:23;;;;;;;9.07;2.45;;;;;;;2.64;100.00;100133.53;4985873;28;20047;-87
2021/12/11 00:44:56;;;;;;;7.60;1.70;;;;;;;2.66;100.00;100130.03;4990325;28;20057;-87
2021/12/11 00:47:28;;;;;;;4.05;1.63;;;;;;;2.85;100.00;100120.28;4991915;28;20412;-87
2021/12/11 00:50:00;;;;;;;5.97;1.52;;;;;;;2.95;100.00;100143.41;5002369;28;20042;-88
2021/12/11 00:52:32;;;;;;;4.07;1.50;;;;;;;2.93;100.00;100145.16;5004087;28;20056;-88
2021/12/11 00:55:01;;;;;;;4.70;1.50;;;;;;;2.88;100.00;100146.97;5001727;28;20045;-88
2021/12/11 00:57:28;;;;;;;5.93;1.63;;;;;;;2.77;100.00;100150.56;4986432;28;20046;-88
2021/12/11 01:00:10;;;;;;;4.57;1.63;;;;;;;2.84;100.00;100159.94;4989660;28;20485;-87
2021/12/11 01:02:38;;;;;;;4.20;1.60;;;;;;;2.97;100.00;100162.34;4984213;28;20129;-87
2021/12/11 01:05:09;;;;;;;12.77;2.13;;;;;;;2.87;100.00;100164.22;4985995;28;20049;-88
2021/12/11 01:07:36;;;;;;;5.65;1.60;;;;;;;2.96;100.00;100158.91;5004228;28;20050;-88
2021/12/11 01:10:26;;;;;;;6.50;2.90;;;;;;;3.01;100.00;100159.69;4984299;28;20042;-88
2021/12/11 01:13:04;;;;;;;6.10;1.60;;;;;;;2.90;100.00;100155.56;4986256;28;20050;-87
2021/12/11 01:15:37;;;;;;;4.75;1.60;;;;;;;3.11;100.00;100165.56;5001296;28;20054;-87
2021/12/11 01:23:46;;;;;;;5.15;1.50;;;;;;;3.20;100.00;100174.91;4993248;28;20057;-88
2021/12/11 01:26:21;;;;;;;9.18;1.75;;;;;;;2.97;100.00;100168.34;4976031;28;20046;-88
2021/12/11 01:28:49;;;;;;;9.15;2.03;;;;;;;3.18;100.00;100182.69;4993420;28;20054;-88
2021/12/11 01:31:19;;;;;;;4.35;1.42;;;;;;;3.23;100.00;100182.63;4980754;28;20129;-88
2021/12/11 01:33:46;;;;;;;7.32;1.70;;;;;;;3.32;100.00;100172.09;4995493;28;20054;-88
2021/12/11 01:36:13;;;;;;;8.90;1.77;;;;;;;3.25;100.00;100157.56;5012744;28;20050;-88
2021/12/11 01:38:41;;;;;;;7.03;1.90;;;;;;;3.21;100.00;100161.09;4994800;28;20053;-88
2021/12/11 01:41:16;;;;;;;4.50;1.77;;;;;;;3.30;100.00;100153.19;4992244;28;20108;-86
2021/12/11 01:43:46;;;;;;;4.25;1.45;;;;;;;3.32;100.00;100164.34;4975861;28;20081;-88
2021/12/11 01:46:14;;;;;;;5.40;1.58;;;;;;;3.32;100.00;100160.91;4975975;28;20591;-88
2021/12/11 01:48:47;;;;;;;6.72;1.40;;;;;;;3.17;100.00;100157.72;4994564;28;20057;-87
2021/12/11 01:51:28;;;;;;;3.50;1.35;;;;;;;3.23;100.00;100172.28;4990690;28;20041;-87
2021/12/11 01:54:17;;;;;;;8.73;1.95;;;;;;;2.98;100.00;100164.91;5012225;28;20058;-87
2021/12/11 01:56:49;;;;;;;5.32;1.80;;;;;;;2.96;100.00;100169.25;4995285;28;20534;-88
2021/12/11 01:59:22;;;;;;;5.57;1.60;;;;;;;3.00;100.00;100164.88;4994652;28;20060;-86
2021/12/11 02:02:03;;;;;;;5.47;1.63;;;;;;;2.93;100.00;100176.19;4998883;28;20305;-88
2021/12/11 02:04:33;;;;;;;3.40;1.30;;;;;;;2.91;100.00;100177.97;4993527;28;20125;-88
2021/12/11 02:07:07;;;;;;;5.38;1.70;;;;;;;2.91;100.00;100176.22;4992637;28;20057;-87
2021/12/11 02:09:36;;;;;;;6.78;1.60;;;;;;;2.98;100.00;100172.66;4975400;28;20405;-86
2021/12/11 02:12:23;;;;;;;5.55;1.75;;;;;;;3.23;100.00;100192.97;5001090;28;20048;-86
2021/12/11 02:14:53;;;;;;;5.00;1.60;;;;;;;3.30;100.00;100196.31;4994880;28;20049;-87
2021/12/11 02:17:27;;;;;;;5.90;1.58;;;;;;;3.34;100.00;100197.97;4994705;28;20045;-87
2021/12/11 02:19:57;;;;;;;3.25;1.45;;;;;;;3.27;100.00;100173.91;5011288;28;20046;-88
2021/12/11 02:22:30;;;;;;;13.65;2.08;;;;;;;3.17;100.00;100175.81;4981588;28;20057;-87
2021/12/11 02:25:01;;;;;;;3.20;1.40;;;;;;;3.42;100.00;100199.56;4975738;28;20072;-85
2021/12/11 02:27:34;;;;;;;2.60;1.40;;;;;;;3.46;100.00;100178.81;4989416;28;20095;-88
2021/12/11 02:30:20;;;;;;;6.95;1.50;;;;;;;3.57;100.00;100184.63;5012664;28;20152;-87
2021/12/11 02:33:14;;;;;;;4.18;1.50;;;;;;;3.51;100.00;100172.66;4982958;28;20062;-86
2021/12/11 02:35:51;;;;;;;4.28;1.40;;;;;;;3.59;100.00;100199.28;4994880;28;20080;-87
2021/12/11 02:38:31;;;;;;;3.55;1.10;;;;;;;3.56;100.00;100201.91;4993928;28;20377;-87
2021/12/11 02:41:10;;;;;;;7.30;1.48;;;;;;;3.56;100.00;100204.50;4991105;28;20050;-87
2021/12/11 02:43:45;;;;;;;6.90;1.60;;;;;;;3.57;100.00;100195.84;4995029;28;20045;-87
2021/12/11 02:46:19;;;;;;;4.40;1.48;;;;;;;3.75;100.00;100205.03;5012354;28;20401;-87
2021/12/11 02:48:51;;;;;;;4.07;1.40;;;;;;;3.64;100.00;100206.94;4994574;28;20057;-87
2021/12/11 02:51:22;;;;;;;5.45;1.60;;;;;;;3.66;100.00;100204.34;5005167;28;20566;-87
2021/12/11 02:54:00;;;;;;;5.93;1.48;;;;;;;3.59;100.00;100196.69;4975615;28;20649;-88
2021/12/11 02:56:43;;;;;;;7.22;1.45;;;;;;;3.65;100.00;100189.66;4975268;28;20085;-88
2021/12/11 02:59:16;;;;;;;8.25;1.73;;;;;;;3.73;100.00;100199.00;4988669;28;20061;-88
2021/12/11 03:01:47;;;;;;;;;;;;;;;3.96;100.00;100213.28;4993856;28;20053;-88
2021/12/11 03:04:26;;;;;;;5.82;1.63;;;;;;;3.71;100.00;100198.19;4993802;28;19965;-87
2021/12/11 03:06:54;;;;;;;4.43;1.75;;;;;;;3.56;100.00;100199.31;4994223;28;20046;-88
2021/12/11 03:09:27;;;;;;;5.20;1.55;;;;;;;3.33;100.00;100184.19;4993989;28;20058;-88
2021/12/11 03:11:57;;;;;;;4.10;1.70;;;;;;;3.39;100.00;100196.16;4985196;28;20393;-88
2021/12/11 03:14:25;;;;;;;3.72;1.58;;;;;;;3.34;100.00;100213.50;4992227;28;20488;-88
2021/12/11 03:16:53;;;;;;;4.38;1.70;;;;;;;3.33;100.00;100215.22;4984662;28;20399;-88
2021/12/11 03:19:24;;;;;;;3.92;1.60;;;;;;;3.36;100.00;100229.84;5011906;28;20054;-88
2021/12/11 03:21:53;;;;;;;5.20;1.60;;;;;;;3.16;100.00;100207.72;4986733;28;20050;-87
2021/12/11 03:24:23;;;;;;;8.15;1.65;;;;;;;3.19;100.00;100215.44;4988159;28;20152;-87
2021/12/11 03:26:52;;;;;;;5.95;1.65;;;;;;;3.09;100.00;100206.13;4997680;28;20058;-89
2021/12/11 03:29:21;;;;;;;7.85;1.70;;;;;;;3.07;100.00;100205.28;4997513;28;20049;-87
2021/12/11 03:31:48;;;;;;;11.77;2.03;;;;;;;3.12;100.00;100213.00;5003515;28;20050;-87
2021/12/11 03:34:28;;;;;;;6.93;1.85;;;;;;;3.11;100.00;100211.28;4977684;28;20050;-86
2021/12/11 03:36:56;;;;;;;6.50;1.70;;;;;;;3.01;100.00;100216.59;4987446;28;20054;-86
2021/12/11 03:39:32;;;;;;;4.43;1.52;;;;;;;3.11;100.00;100235.41;4997148;28;20058;-87
2021/12/11 03:42:04;;;;;;;4.60;1.70;;;;;;;3.40;100.00;100232.38;4987884;28;20058;-86
2021/12/11 03:44:33;;;;;;;6.63;1.77;;;;;;;3.56;100.00;100222.63;4978160;28;20078;-86
2021/12/11 03:47:06;;;;;;;8.63;1.75;;;;;;;3.85;100.00;100226.41;4988290;28;20403;-87
2021/12/11 03:49:34;;;;;;;5.35;1.60;;;;;;;3.98;100.00;100203.72;4997013;28;20056;-86
2021/12/11 03:52:03;;;;;;;5.22;1.50;;;;;;;4.03;100.00;100207.09;4987164;28;20068;-87
2021/12/11 03:54:32;;;;;;;8.27;1.83;;;;;;;4.02;100.00;100204.53;5005408;28;20060;-86
2021/12/11 03:57:00;;;;;;;4.55;1.30;;;;;;;4.24;100.00;100236.06;4996841;28;20046;-86
2021/12/11 03:59:30;;;;;;;6.90;1.70;;;;;;;4.15;100.00;100224.16;4996737;28;20068;-86
2021/12/11 04:02:03;;;;;;;4.82;1.85;;;;;;;4.15;100.00;100217.22;4984794;28;20089;-86
2021/12/11 04:04:33;;;;;;;;;;;;;;;4.50;100.00;100225.19;4977894;28;20140;-87
2021/12/11 04:07:03;;;;;;;5.20;1.70;;;;;;;4.35;100.00;100227.19;4996443;28;19921;-86
2021/12/11 04:09:31;;;;;;;3.42;1.30;;;;;;;4.28;100.00;100219.56;4996641;28;20050;-87
2021/12/11 04:12:00;;;;;;;2.40;1.10;;;;;;;4.50;100.00;100225.19;4995106;28;20679;-86
2021/12/11 04:14:31;;;;;;;3.63;1.30;;;;;;;4.57;100.00;100237.97;5013660;28;20054;-87
2021/12/11 04:16:59;;;;;;;6.88;1.45;;;;;;;4.52;100.00;100211.28;4996186;28;20057;-86
2021/12/11 04:19:26;;;;;;;5.60;1.55;;;;;;;4.35;100.00;100192.66;5014250;28;20480;-87
2021/12/11 04:21:54;;;;;;;5.93;1.30;;;;;;;4.21;100.00;100167.00;4987254;28;20054;-87
2021/12/11 04:24:25;;;;;;;5.18;1.33;;;;;;;4.23;100.00;100166.97;4977295;28;20080;-86
2021/12/11 04:26:54;;;;;;;3.03;1.27;;;;;;;4.59;100.00;100225.00;4985156;28;20054;-87
2021/12/11 04:29:21;;;;;;;4.55;1.33;;;;;;;4.60;100.00;100221.50;5013116;28;20060;-86
2021/12/11 04:31:48;;;;;;;3.33;1.30;;;;;;;4.64;100.00;100243.91;4983983;28;20473;-86
2021/12/11 04:34:18;;;;;;;2.67;1.30;;;;;;;4.52;100.00;100221.66;4976673;28;20064;-86
2021/12/11 04:36:59;;;;;;;4.50;1.45;;;;;;;4.48;100.00;100234.72;4976295;28;20053;-86
2021/12/11 04:39:28;;;;;;;8.30;1.70;;;;;;;4.28;100.00;100230.78;4976347;28;20054;-86
2021/12/11 04:42:04;;;;;;;6.47;1.75;;;;;;;4.04;100.00;100228.66;4978952;28;20424;-86
2021/12/11 04:44:37;;;;;;;5.43;1.60;;;;;;;3.84;100.00;100216.94;4976448;28;20054;-87
2021/12/11 04:47:08;;;;;;;;;;;;;;;3.98;100.00;100224.47;4985744;28;20469;-86
2021/12/11 04:49:47;;;;;;;5.20;1.25;;;;;;;3.62;100.00;100206.13;4995944;28;20031;-86
2021/12/11 04:52:19;;;;;;;16.80;2.45;;;;;;;3.54;100.00;100211.44;4994678;28;20069;-86
2021/12/11 05:10:41;;;;;;;3.75;1.30;;;;;;;3.24;100.00;100236.09;4947165;28;20057;-86
2021/12/11 05:13:08;;;;;;;5.22;2.00;;;;;;;3.18;100.00;100223.22;4985725;28;20049;-86
2021/12/11 05:15:38;;;;;;;6.57;1.67;;;;;;;3.39;100.00;100250.50;4985407;28;20089;-86
2021/12/11 05:18:11;;;;;;;7.05;1.70;;;;;;;3.14;100.00;100237.94;5004170;28;20164;-86
2021/12/11 05:20:41;;;;;;;3.88;1.60;;;;;;;3.29;100.00;100234.25;5004198;28;20056;-86
2021/12/11 05:23:16;;;;;;;5.75;1.60;;;;;;;3.46;100.00;100236.59;4992853;28;20049;-86
2021/12/11 05:25:45;;;;;;;7.03;1.70;;;;;;;3.35;100.00;100238.50;4986966;28;20046;-88
2021/12/11 05:28:12;;;;;;;8.50;1.77;;;;;;;3.20;100.00;100226.66;4983905;28;20054;-87
2021/12/11 05:30:44;;;;;;;9.82;1.75;;;;;;;3.07;100.00;100207.03;4987872;28;20472;-88
2021/12/11 05:33:11;;;;;;;4.57;1.50;;;;;;;3.19;100.00;100215.44;5002741;28;20050;-86
2021/12/11 05:35:39;;;;;;;4.40;1.40;;;;;;;3.43;100.00;100236.63;4999080;28;20046;-86
2021/12/11 05:38:09;;;;;;;5.13;1.60;;;;;;;3.29;100.00;100221.31;4984169;28;20042;-88
2021/12/11 05:40:40;;;;;;;12.55;1.73;;;;;;;3.45;100.00;100239.19;4985362;28;20057;-86
2021/12/11 05:43:07;;;;;;;5.50;1.48;;;;;;;3.28;100.00;100214.44;4985975;28;20065;-87
2021/12/11 05:45:35;;;;;;;8.13;2.38;;;;;;;3.28;100.00;100229.13;4976321;28;20047;-87
2021/12/11 05:48:03;;;;;;;4.22;1.60;;;;;;;3.36;100.00;100237.59;4994229;28;20054;-87
2021/12/11 05:50:34;;;;;;;6.45;2.15;;;;;;;3.30;100.00;100248.91;4986086;28;20499;-87
2021/12/11 05:53:03;;;;;;;7.35;1.60;;;;;;;3.24;100.00;100233.50;4984731;28;20063;-86
2021/12/11 05:55:32;;;;;;;3.47;1.50;;;;;;;3.40;100.00;100242.72;4995332;28;20054;-87
2021/12/11 05:58:03;;;;;;;8.68;1.73;;;;;;;3.24;100.00;100241.25;4991422;28;20054;-87
2021/12/11 06:00:35;;;;;;;7.30;1.70;;;;;;;3.55;100.00;100248.53;4994106;28;20057;-87
2021/12/11 06:03:04;;;;;;;6.18;1.70;;;;;;;3.45;100.00;100252.97;4991222;28;20539;-86
2021/12/11 06:05:31;;;;;;;6.43;1.58;;;;;;;3.36;100.00;100237.59;4990864;28;20591;-87
2021/12/11 06:07:58;;;;;;;5.53;1.30;;;;;;;3.48;100.00;100240.00;4991540;28;20081;-87
2021/12/11 06:10:27;;;;;;;2.97;1.40;;;;;;;3.23;100.00;100214.50;5008824;28;20057;-87
2021/12/11 06:12:58;;;;;;;5.80;1.77;;;;;;;3.40;100.00;100234.97;4994367;28;20838;-87
2021/12/11 06:15:26;;;;;;;2.83;1.20;;;;;;;3.48;100.00;100242.59;4993961;28;20058;-87
2021/12/11 06:17:53;;;;;;;4.75;1.60;;;;;;;3.41;100.00;100235.81;4994580;28;20050;-87
2021/12/11 06:20:25;;;;;;;7.72;2.03;;;;;;;3.23;100.00;100205.91;4994069;28;20704;-87
2021/12/11 06:22:51;;;;;;;4.55;2.47;;;;;;;3.46;100.00;100235.75;4976535;28;20467;-87
2021/12/11 06:25:28;;;;;;;5.70;1.55;;;;;;;3.34;100.00;100254.91;5000723;28;20048;-87
2021/12/11 06:27:55;;;;;;;9.38;1.90;;;;;;;3.30;100.00;100233.38;4994539;28;20480;-88
2021/12/11 06:30:22;;;;;;;4.60;1.48;;;;;;;3.29;100.00;100249.78;5010364;28;20407;-87
2021/12/11 06:32:51;;;;;;;5.22;1.40;;;;;;;3.41;100.00;100270.28;4986998;28;20057;-86
2021/12/11 06:35:30;;;;;;;7.30;1.85;;;;;;;3.21;100.00;100270.59;4992208;28;20057;-88
2021/12/11 06:37:58;;;;;;;7.70;3.28;;;;;;;3.23;100.00;100266.25;4992823;28;20046;-85
2021/12/11 06:40:27;;;;;;;6.13;1.58;;;;;;;3.02;100.00;100248.47;4990308;28;20056;-87
2021/12/11 06:42:54;;;;;;;6.35;1.85;;;;;;;3.06;100.00;100259.63;4990791;28;20050;-87
2021/12/11 06:45:23;;;;;;;4.38;1.80;;;;;;;3.20;100.00;100260.28;4993435;28;20088;-86
2021/12/11 06:47:51;;;;;;;6.40;1.80;;;;;;;3.27;100.00;100243.78;4984253;28;20046;-87
2021/12/11 06:50:18;;;;;;;4.82;1.70;;;;;;;3.32;100.00;100252.34;4990227;28;20050;-86
2021/12/11 06:52:47;;;;;;;7.03;1.50;;;;;;;3.39;100.00;100246.19;5002991;28;20051;-86
2021/12/11 06:55:16;;;;;;;8.77;2.38;;;;;;;3.54;100.00;100244.22;4984444;28;20050;-86
2021/12/11 06:57:44;;;;;;;6.10;2.17;;;;;;;3.20;100.00;100237.00;4998096;28;20077;-86
2021/12/11 07:00:13;;;;;;;5.60;1.80;;;;;;;3.27;100.00;100243.78;4997443;28;20050;-87
2021/12/11 07:02:40;;;;;;;5.75;2.00;;;;;;;2.87;100.00;100210.78;4983147;28;20050;-85
2021/12/11 07:05:08;;;;;;;7.75;1.73;;;;;;;2.98;100.00;100228.72;4979409;28;20053;-87
2021/12/11 07:07:37;;;;;;;10.43;3.30;;;;;;;3.03;100.00;100234.69;4993767;28;20841;-87
2021/12/11 07:10:07;;;;;;;4.80;1.58;;;;;;;3.22;100.00;100253.34;4997628;28;20050;-87
2021/12/11 07:12:34;;;;;;;5.35;1.80;;;;;;;3.12;100.00;100254.38;4992460;28;20042;-87
2021/12/11 07:15:03;;;;;;;5.18;1.88;;;;;;;3.15;100.00;100238.78;4997739;28;20459;-87
2021/12/11 07:17:29;;;;;;;6.03;2.10;;;;;;;3.21;100.00;100241.31;4997765;28;20513;-87
2021/12/11 07:19:56;;;;;;;4.97;1.73;;;;;;;3.36;100.00;100242.78;5010537;28;20483;-87
2021/12/11 07:22:24;;;;;;;5.70;1.73;;;;;;;3.52;100.00;100246.81;4987797;28;20049;-87
2021/12/11 07:24:59;;;;;;;4.10;1.73;;;;;;;3.37;100.00;100228.97;4996986;28;20052;-87
2021/12/11 07:27:26;;;;;;;4.93;1.80;;;;;;;3.41;100.00;100248.75;4997342;28;20054;-87
2021/12/11 07:29:53;;;;;;;6.47;1.55;;;;;;;3.27;100.00;100225.66;5008807;28;20056;-87
2021/12/11 07:32:20;;;;;;;5.75;1.70;;;;;;;3.23;100.00;100231.78;4993759;28;20048;-87
2021/12/11 07:34:47;;;;;;;7.22;2.13;;;;;;;2.95;100.00;100226.16;4985927;28;20479;-87
2021/12/11 07:37:16;;;;;;;6.32;1.92;;;;;;;3.02;100.00;100220.88;4997000;28;20064;-87
2021/12/11 07:39:42;;;;;;;7.97;2.20;;;;;;;3.04;100.00;100241.53;4996990;28;20381;-87
2021/12/11 07:42:09;;;;;;;4.53;1.90;;;;;;;3.05;100.00;100212.22;5003705;28;20153;-87
2021/12/11 07:44:36;;;;;;;7.38;2.38;;;;;;;2.93;100.00;100230.50;4989113;28;20046;-87
2021/12/11 07:47:05;;;;;;;5.00;1.90;;;;;;;3.00;100.00;100226.94;5014479;28;20054;-88
2021/12/11 07:49:32;;;;;;;13.00;3.20;;;;;;;2.88;100.00;100242.63;4996882;28;20479;-87
2021/12/11 07:51:59;;;;;;;8.60;1.67;;;;;;;3.14;100.00;100225.00;4992634;28;20046;-87
2021/12/11 07:54:25;;;;;;;4.30;1.52;;;;;;;3.27;100.00;100233.44;4997090;28;20050;-87
2021/12/11 07:56:54;;;;;;;4.47;1.60;;;;;;;3.48;100.00;100226.22;4996624;28;20046;-87
2021/12/11 07:59:21;;;;;;;5.22;1.67;;;;;;;3.42;100.00;100204.72;5013925;28;20403;-88
2021/12/11 08:01:51;;;;;;;7.60;2.03;;;;;;;3.75;100.00;100212.81;4994022;28;20046;-88
2021/12/11 08:04:20;;;;;;;6.00;2.40;;;;;;;3.71;100.00;100207.69;4980034;28;20073;-88
2021/12/11 08:06:47;;;;;;;7.15;1.92;;;;;;;3.90;100.00;100216.84;4987837;28;20050;-87
2021/12/11 08:09:19;;;;;;;4.35;1.38;;;;;;;4.08;100.00;100213.03;4995296;28;20507;-88
2021/12/11 08:11:49;;;;;;;4.30;1.50;;;;;;;3.86;100.00;100222.97;4995326;28;20665;-87
2021/12/11 08:14:20;;;;;;;6.95;2.60;;;;;;;3.69;100.00;100212.91;4985411;28;20058;-87
2021/12/11 08:16:49;;;;;;;6.47;1.70;;;;;;;3.71;100.00;100211.13;4987150;28;20049;-87
2021/12/11 08:19:20;;;;;;;4.70;1.77;;;;;;;3.67;100.00;100193.09;4984722;28;20052;-88
2021/12/11 08:21:49;;;;;;;4.00;1.60;;;;;;;3.68;100.00;100187.88;4993023;28;20057;-87
2021/12/11 08:24:16;;;;;;;8.63;1.83;;;;;;;3.66;100.00;100196.56;4991222;28;20058;-87
2021/12/11 08:26:44;;;;;;;7.18;2.58;;;;;;;3.58;100.00;100207.91;4996371;28;20061;-87
2021/12/11 08:29:13;;;;;;;8.93;3.67;;;;;;;3.56;100.00;100188.97;4991975;28;20072;-87
2021/12/11 08:31:43;;;;;;;5.07;1.75;;;;;;;3.70;100.00;100196.50;4991742;28;20057;-87
2021/12/11 08:34:10;;;;;;;6.97;1.58;;;;;;;3.35;100.00;100143.59;4999756;28;20583;-87
2021/12/11 08:36:38;;;;;;;6.28;1.60;;;;;;;3.93;100.00;100195.19;5011541;28;20066;-88
2021/12/11 08:39:08;;;;;;;6.90;1.77;;;;;;;4.04;100.00;100194.97;5007053;28;20197;-88
2021/12/11 08:41:36;;;;;;;6.32;1.73;;;;;;;4.04;100.00;100190.69;4988923;28;20431;-88
2021/12/11 08:44:09;;;;;;;6.15;1.65;;;;;;;3.92;100.00;100173.63;4987118;28;20054;-88
2021/12/11 08:46:37;;;;;;;;;;;;;;;4.64;100.00;100196.34;4994661;28;20108;-87
2021/12/11 08:49:11;;;;;;;5.60;1.60;;;;;;;4.68;100.00;100201.44;4990267;28;19926;-87
2021/12/11 08:51:45;;;;;;;3.53;1.33;;;;;;;4.74;100.00;100185.75;4988611;28;20046;-87
2021/12/11 08:54:12;;;;;;;6.10;1.70;;;;;;;4.51;100.00;100149.94;4986042;28;20205;-88
2021/12/11 08:56:41;;;;;;;7.32;1.70;;;;;;;4.73;100.00;100191.81;5007613;28;20387;-88
2021/12/11 08:59:12;;;;;;;9.55;1.90;;;;;;;4.81;100.00;100198.59;4987874;28;20057;-88
2021/12/11 09:02:00;;;;;;;5.65;1.70;;;;;;;5.19;100.00;100205.50;4987866;28;20054;-88
2021/12/11 09:04:55;;;;;;;6.07;1.73;;;;;;;5.09;100.00;100201.41;5002691;28;20055;-88
2021/12/11 09:07:26;;;;;;;10.60;1.88;;;;;;;5.13;100.00;100203.91;4989581;28;20053;-88
2021/12/11 09:10:11;;;;;;;6.80;2.30;;;;;;;5.25;100.00;100194.94;4989466;28;20061;-86
2021/12/11 09:12:46;;;;;;;8.38;2.22;;;;;;;5.31;100.00;100193.94;4983084;28;20098;-88
2021/12/11 09:15:16;;;;;;;6.15;1.60;;;;;;;5.46;100.00;100206.53;4986729;28;20049;-87
2021/12/11 09:17:48;;;;;;;7.88;1.90;;;;;;;5.25;100.00;100209.66;4985364;28;20060;-87
2021/12/11 09:20:25;;;;;;;12.32;2.15;;;;;;;5.19;100.00;100191.63;4999549;28;20137;-87
2021/12/11 09:23:00;;;;;;;11.18;2.20;;;;;;;5.37;100.00;100203.34;4981764;28;20522;-86
2021/12/11 09:25:43;;;;;;;9.50;1.90;;;;;;;5.27;100.00;100198.34;5001508;28;20129;-87
2021/12/11 09:28:16;;;;;;;;;;;;;;;5.49;100.00;100185.69;4991054;28;20049;-87
2021/12/11 09:30:48;;;;;;;8.43;2.22;;;;;;;5.04;100.00;100172.09;4988643;28;19925;-87
2021/12/11 09:33:20;;;;;;;9.48;2.10;;;;;;;5.27;100.00;100163.75;5001655;28;20444;-88
2021/12/11 09:35:49;;;;;;;10.18;1.92;;;;;;;5.50;100.00;100168.38;5004511;28;20060;-88
2021/12/11 09:38:23;;;;;;;7.07;1.80;;;;;;;5.68;100.00;100187.81;4984708;28;20848;-88
2021/12/11 09:40:54;;;;;;;11.95;2.00;;;;;;;5.66;100.00;100176.63;4983382;28;20046;-88
2021/12/11 09:43:40;;;;;;;10.90;2.28;;;;;;;5.61;100.00;100174.16;4991431;28;20137;-88
2021/12/11 09:46:10;;;;;;;12.50;3.47;;;;;;;5.70;100.00;100173.03;4986135;28;20045;-85
2021/12/11 09:48:39;;;;;;;12.10;2.08;;;;;;;5.69;100.00;100154.00;4994991;28;20045;-88
2021/12/11 09:51:12;;;;;;;9.10;2.17;;;;;;;5.58;100.00;100161.25;4992398;28;20057;-88
2021/12/11 09:53:50;;;;;;;11.32;2.20;;;;;;;5.40;100.00;100177.28;4984245;28;20476;-87
2021/12/11 09:56:45;;;;;;;9.65;2.95;;;;;;;5.76;100.00;100172.03;5010965;28;20042;-87
2021/12/11 09:59:15;;;;;;;10.10;2.65;;;;;;;5.71;100.00;100152.22;4980659;28;20645;-86
2021/12/11 10:01:45;;;;;;;7.70;2.45;;;;;;;5.79;100.00;100158.94;5006669;28;20052;-87
2021/12/11 10:04:22;;;;;;;19.52;2.95;;;;;;;5.49;100.00;100131.19;4992190;28;20050;-85
2021/12/11 10:09:31;;;;;;;15.35;2.83;;;;;;;5.75;100.00;100150.38;5011408;28;20050;-87
2021/12/11 10:12:06;;;;;;;10.45;2.13;;;;;;;5.64;100.00;100145.47;4983356;28;20503;-84
2021/12/11 10:14:40;;;;;;;9.48;2.17;;;;;;;5.68;100.00;100147.13;4981981;28;20061;-87
2021/12/11 10:17:12;;;;;;;14.60;3.10;;;;;;;5.56;100.00;100172.53;4988466;28;20056;-87
2021/12/11 10:19:40;;;;;;;16.95;3.55;;;;;;;5.43;100.00;100174.63;5000503;28;20056;-84
2021/12/11 10:22:21;;;;;;;14.95;3.70;;;;;;;5.55;100.00;100171.69;4985100;28;20489;-86
2021/12/11 10:24:50;;;;;;;13.80;2.83;;;;;;;5.64;100.00;100168.03;4989682;28;20054;-85
2021/12/11 10:27:20;;;;;;;15.68;2.92;;;;;;;5.65;100.00;100149.81;4991775;28;20041;-86
2021/12/11 10:29:50;;;;;;;21.75;5.63;;;;;;;5.47;100.00;100138.16;4987214;28;20052;-86
2021/12/11 10:32:21;;;;;;;16.05;2.80;;;;;;;5.56;100.00;100154.38;4987261;28;20408;-86
2021/12/11 10:34:56;;;;;;;13.77;3.42;;;;;;;5.32;100.00;100147.19;4989233;28;20045;-86
2021/12/11 10:37:29;;;;;;;10.48;3.05;;;;;;;5.58;100.00;100153.44;4989394;28;20049;-86
2021/12/11 10:39:58;;;;;;;;;;;;;;;5.70;100.00;100155.72;4989734;28;20085;-87
2021/12/11 10:42:25;;;;;;;12.00;2.50;;;;;;;5.56;100.00;100142.25;4991421;28;19921;-87
2021/12/11 10:44:56;;;;;;;15.40;3.58;;;;;;;5.57;100.00;100153.50;4995093;28;20042;-87
2021/12/11 10:47:34;;;;;;;16.80;4.05;;;;;;;5.56;100.00;100155.25;4996160;28;20049;-87
2021/12/11 10:50:25;;;;;;;14.50;3.45;;;;;;;5.59;100.00;100149.09;4999007;28;20054;-87
2021/12/11 10:52:52;;;;;;;16.75;3.53;;;;;;;5.60;100.00;100135.25;4993327;28;20046;-87
2021/12/11 10:55:23;;;;;;;11.68;3.58;;;;;;;5.46;100.00;100133.00;4995407;28;20556;-87
2021/12/11 10:57:55;;;;;;;15.32;5.40;;;;;;;5.46;100.00;100136.44;5014073;28;20392;-87
2021/12/11 11:00:44;;;;;;;15.60;4.57;;;;;;;5.39;100.00;100129.69;4995171;28;20050;-87
2021/12/11 11:03:11;;;;;;;16.50;4.25;;;;;;;5.53;100.00;100111.16;4995189;28;20418;-87
2021/12/11 11:05:38;;;;;;;18.50;5.35;;;;;;;5.57;100.00;100114.53;4990975;28;20061;-86
2021/12/11 11:08:07;;;;;;;20.55;5.95;;;;;;;5.54;100.00;100127.59;4991101;28;20582;-86
2021/12/11 11:10:38;;;;;;;12.68;5.20;;;;;;;5.12;100.00;100079.38;5009577;28;20069;-85
2021/12/11 11:13:11;;;;;;;19.38;4.68;;;;;;;5.47;100.00;100111.31;4996220;28;20052;-87
2021/12/11 11:15:39;;;;;;;19.08;4.75;;;;;;;5.56;100.00;100141.38;4997496;28;20045;-87
2021/12/11 11:18:10;;;;;;;14.98;4.68;;;;;;;5.42;100.00;100133.94;4996961;28;20050;-85
2021/12/11 11:20:42;;;;;;;19.15;5.25;;;;;;;5.20;100.00;100115.50;4996381;28;20050;-85
2021/12/11 11:23:09;;;;;;;13.90;4.07;;;;;;;5.53;100.00;100129.34;4989912;28;20054;-85
2021/12/11 11:25:47;;;;;;;21.27;5.65;;;;;;;5.34;100.00;100113.38;4987206;28;20054;-85
2021/12/11 11:28:19;;;;;;;13.63;4.50;;;;;;;5.58;100.00;100121.41;4993254;28;20149;-85
2021/12/11 11:30:54;;;;;;;15.13;4.82;;;;;;;5.45;100.00;100113.97;4996480;28;20049;-86
2021/12/11 11:33:22;;;;;;;17.27;4.65;;;;;;;5.41;100.00;100117.53;5010771;28;20046;-86
2021/12/11 11:35:51;;;;;;;15.15;3.53;;;;;;;5.55;100.00;100101.59;4996565;28;20140;-85
2021/12/11 11:38:22;;;;;;;14.68;3.75;;;;;;;5.68;100.00;100095.19;4996778;28;20412;-86
2021/12/11 11:40:54;;;;;;;14.38;3.60;;;;;;;5.55;100.00;100087.75;4995342;28;20056;-86
2021/12/11 11:43:23;;;;;;;14.02;4.68;;;;;;;5.67;100.00;100101.25;4996110;28;20747;-86
2021/12/11 11:45:54;;;;;;;14.75;4.00;;;;;;;5.79;100.00;100110.47;4996153;28;20056;-87
2021/12/11 11:48:29;;;;;;;14.73;4.38;;;;;;;5.88;100.00;100101.56;4994300;28;20596;-86
2021/12/11 11:51:23;;;;;;;13.73;3.50;;;;;;;5.78;100.00;100095.75;4983256;28;20677;-87
2021/12/11 11:53:50;;;;;;;20.08;6.05;;;;;;;5.87;100.00;100090.28;4985589;28;20053;-86
2021/12/11 11:56:22;;;;;;;12.23;4.00;;;;;;;6.13;100.00;100080.09;4995073;28;20106;-86
2021/12/11 11:58:50;;;;;;;18.42;5.20;;;;;;;6.11;100.00;100082.75;4990899;28;20069;-87
2021/12/11 12:01:24;;;;;;;16.73;4.80;;;;;;;6.15;100.00;100091.28;4987028;28;20050;-87
2021/12/11 12:03:51;;;;;;;16.38;5.10;;;;;;;6.05;100.00;100088.09;4992964;28;20120;-86
2021/12/11 12:06:24;;;;;;;16.65;8.02;;;;;;;5.76;100.00;100071.56;4987850;28;20061;-86
2021/12/11 12:08:56;;;;;;;19.65;6.55;;;;;;;5.97;100.00;100074.50;4992984;28;20078;-87